KLGU/LGU METAR and TAF weather

Enter ICAO airport designator
Station Type Date Time Source
KLGU METAR 2021/07/30 07:51 UTC NOAA

KLGU 300751Z AUTO 19004KT 10SM CLR 24/14 A3011 RMK AO2 SLP131 T02390139


Station Type Date Time Source
KLGU Decoded METAR 2021/07/30 07:51 UTC NOAA

LOGAN CACHE AIRPORT, UT, United States (KLGU) 41-47N 111-51W 1355M
Jul 30, 2021 - 03:51 AM EDT / 2021.07.30 0751 UTC
Wind: from the S (190 degrees) at 5 MPH (4 KT):0
Visibility: 10 mile(s):0
Sky conditions: clear
Temperature: 75.0 F (23.9 C)
Dew Point: 57.0 F (13.9 C)
Relative Humidity: 53%
Pressure (altimeter): 30.11 in. Hg (1019 hPa)
ob: KLGU 300751Z AUTO 19004KT 10SM CLR 24/14 A3011 RMK AO2 SLP131 T02390139
cycle: 8

Station Type Date Time Source
KLGU TAF 2021/07/30 06:22 UTC NOAA

TAF KLGU 300520Z 3006/3106 VRB05KT P6SM SCT150
FM301800 17006KT P6SM VCSH BKN100
FM310200 VRB06KT P6SM VCSH BKN100

Example: see airport list